Time;durP1;ratioP1;P1;durP2;ratioP2;P2;SDS_P1;SDS_P2;PMS_P1;PMS_P2;Temp;Humidity;BMP_temperature;BMP_pressure;BME280_temperature;BME280_humidity;BME280_pressure;Samples;Min_cycle;Max_cycle;Signal;HPM_P1;HPM_P2
2022/05/17 00:01:58;;;;;;;5.53;2.40;;;15.10;1.00;;;;;;5055360;28;20552;-86
2022/05/17 00:04:25;;;;;;;4.17;2.00;;;15.10;1.00;;;;;;5054658;28;20629;-89
2022/05/17 00:06:54;;;;;;;3.37;2.20;;;15.00;1.00;;;;;;5054646;28;20189;-88
2022/05/17 00:09:21;;;;;;;4.13;2.67;;;15.00;1.00;;;;;;5054560;28;20189;-87
2022/05/17 00:11:49;;;;;;;5.20;2.80;;;15.00;1.00;;;;;;5035832;28;20202;-87
2022/05/17 00:14:17;;;;;;;5.17;2.40;;;14.90;1.00;;;;;;5034379;28;20557;-86
2022/05/17 00:16:46;;;;;;;6.97;2.73;;;14.90;1.00;;;;;;5034415;28;20214;-87
2022/05/17 00:19:16;;;;;;;5.23;3.23;;;14.80;1.00;;;;;;5040989;28;20193;-88
2022/05/17 00:21:44;;;;;;;4.83;3.13;;;14.80;1.00;;;;;;5054975;28;20192;-87
2022/05/17 00:24:14;;;;;;;6.33;3.37;;;14.70;1.00;;;;;;5054339;28;20227;-89
2022/05/17 00:26:42;;;;;;;3.70;2.80;;;14.70;1.00;;;;;;5054089;28;20194;-87
2022/05/17 00:29:09;;;;;;;6.47;2.90;;;14.60;1.00;;;;;;5053850;28;20196;-86
2022/05/17 00:31:37;;;;;;;6.03;2.70;;;14.50;1.00;;;;;;5054270;28;20215;-88
2022/05/17 00:34:05;;;;;;;4.93;2.67;;;14.50;1.00;;;;;;5054135;28;20210;-88
2022/05/17 00:36:33;;;;;;;6.60;2.60;;;14.40;1.00;;;;;;5053891;28;20676;-87
2022/05/17 00:39:00;;;;;;;3.80;2.30;;;14.40;1.00;;;;;;5053758;28;20197;-89
2022/05/17 00:41:30;;;;;;;4.10;2.23;;;14.30;1.00;;;;;;5054400;28;20201;-88
2022/05/17 00:46:47;;;;;;;4.87;2.63;;;14.20;1.00;;;;;;5053437;28;20202;-86
2022/05/17 00:49:23;;;;;;;6.77;2.80;;;14.20;1.00;;;;;;5053590;28;20203;-89
2022/05/17 00:51:52;;;;;;;3.53;2.57;;;14.10;1.00;;;;;;5053589;28;20198;-89
2022/05/17 00:54:19;;;;;;;5.40;2.70;;;14.10;1.00;;;;;;5053629;28;20667;-87
2022/05/17 00:56:56;;;;;;;4.37;2.30;;;14.10;1.00;;;;;;5052910;28;20220;-89
2022/05/17 00:59:26;;;;;;;8.07;2.57;;;14.00;1.00;;;;;;5053350;28;20636;-86
2022/05/17 01:01:54;;;;;;;4.20;2.30;;;13.90;1.00;;;;;;5053865;28;20226;-89
2022/05/17 01:04:24;;;;;;;9.03;2.60;;;13.90;1.00;;;;;;5053262;28;20646;-86
2022/05/17 01:06:57;;;;;;;4.83;2.60;;;13.90;1.00;;;;;;5052571;28;20543;-86
2022/05/17 01:09:25;;;;;;;5.90;2.60;;;13.80;1.00;;;;;;5053758;28;20250;-88
2022/05/17 01:11:54;;;;;;;4.07;2.40;;;13.80;1.00;;;;;;5053657;28;20204;-89
2022/05/17 01:17:06;;;;;;;4.53;2.50;;;13.70;1.00;;;;;;5052565;28;20210;-89
2022/05/17 01:19:34;;;;;;;3.87;2.50;;;13.70;1.00;;;;;;5052902;28;20278;-87
2022/05/17 01:22:02;;;;;;;4.67;2.60;;;13.60;1.00;;;;;;5052641;28;20667;-87
2022/05/17 01:24:29;;;;;;;5.40;2.17;;;13.60;1.00;;;;;;5053117;28;20196;-90
2022/05/17 01:27:02;;;;;;;4.33;2.60;;;13.60;1.00;;;;;;5052554;28;20590;-86
2022/05/17 01:29:37;;;;;;;3.03;2.10;;;13.50;1.00;;;;;;5053287;28;20577;-90
2022/05/17 01:32:05;;;;;;;5.13;2.53;;;13.50;1.00;;;;;;5053101;28;20177;-89
2022/05/17 01:34:32;;;;;;;5.40;2.70;;;13.50;1.00;;;;;;5052433;28;20200;-87
2022/05/17 01:36:59;;;;;;;4.60;2.30;;;13.40;1.00;;;;;;5051817;28;20575;-89
2022/05/17 01:39:29;;;;;;;4.83;2.33;;;13.40;1.00;;;;;;5053085;28;20632;-88
2022/05/17 01:41:57;;;;;;;6.70;2.43;;;13.30;1.00;;;;;;5052978;28;20670;-86
2022/05/17 01:44:25;;;;;;;4.00;2.20;;;13.30;1.00;;;;;;5052289;28;20686;-90
2022/05/17 01:46:53;;;;;;;3.90;2.23;;;13.20;1.00;;;;;;5052802;28;20206;-91
2022/05/17 01:49:20;;;;;;;5.17;2.60;;;13.20;1.00;;;;;;5052158;28;20681;-87
2022/05/17 01:51:47;;;;;;;5.10;2.30;;;13.20;1.00;;;;;;5052341;28;20229;-89
2022/05/17 01:54:14;;;;;;;5.77;2.57;;;13.20;1.00;;;;;;5052277;28;20206;-88
2022/05/17 01:56:43;;;;;;;3.23;2.30;;;13.10;1.00;;;;;;5052159;28;20213;-89
2022/05/17 01:59:12;;;;;;;4.77;1.97;;;13.00;1.00;;;;;;5052376;28;20202;-87
2022/05/17 02:01:41;;;;;;;3.93;2.27;;;13.00;1.00;;;;;;5052645;28;20205;-90
2022/05/17 02:04:08;;;;;;;7.43;2.43;;;12.90;1.00;;;;;;5052764;28;20193;-87
2022/05/17 02:06:36;;;;;;;3.67;2.40;;;12.90;1.00;;;;;;5053188;28;20201;-89
2022/05/17 02:09:03;;;;;;;4.60;2.40;;;12.80;1.00;;;;;;5052614;28;20196;-87
2022/05/17 02:11:31;;;;;;;5.23;2.30;;;12.70;1.00;;;;;;5052528;28;20201;-87
2022/05/17 02:14:00;;;;;;;2.43;1.93;;;12.70;1.00;;;;;;5052456;28;20561;-88
2022/05/17 02:16:27;;;;;;;4.37;1.93;;;12.50;1.00;;;;;;5052239;28;20220;-91
2022/05/17 02:18:54;;;;;;;2.53;1.97;;;12.50;1.00;;;;;;5052543;28;20652;-87
2022/05/17 02:21:21;;;;;;;4.87;2.30;;;12.50;1.00;;;;;;5052551;28;20652;-87
2022/05/17 02:23:48;;;;;;;5.00;2.20;;;12.40;1.00;;;;;;5052012;28;20197;-87
2022/05/17 02:26:15;;;;;;;6.70;2.23;;;12.30;1.00;;;;;;5052072;28;20205;-91
2022/05/17 02:28:43;;;;;;;3.47;2.00;;;12.20;1.00;;;;;;5053814;28;20203;-87
2022/05/17 02:31:13;;;;;;;5.13;2.23;;;12.20;1.00;;;;;;5052669;28;25158;-87
2022/05/17 02:33:41;;;;;;;5.37;2.13;;;12.10;1.00;;;;;;5052547;28;20289;-86
2022/05/17 02:36:09;;;;;;;2.90;2.20;;;12.00;1.00;;;;;;5052267;28;20239;-90
2022/05/17 02:38:36;;;;;;;4.30;2.33;;;12.00;1.00;;;;;;5052669;28;20203;-88
2022/05/17 02:41:03;;;;;;;3.00;2.03;;;12.00;1.00;;;;;;5051634;28;20192;-86
2022/05/17 02:43:31;;;;;;;4.03;2.17;;;12.00;1.00;;;;;;5052200;28;20228;-87
2022/05/17 02:45:58;;;;;;;5.43;1.90;;;12.00;1.00;;;;;;5051865;28;20559;-88
2022/05/17 02:48:26;;;;;;;;;;;12.00;1.00;;;;;;5053723;28;20284;-89
2022/05/17 02:50:54;;;;;;;4.47;2.50;;;11.90;1.00;;;;;;5055195;28;20964;-88
2022/05/17 02:53:21;;;;;;;8.10;2.23;;;11.90;1.00;;;;;;5056046;28;20205;-86
2022/05/17 02:55:48;;;;;;;3.13;1.90;;;11.90;1.00;;;;;;5056058;28;20215;-89
2022/05/17 02:58:16;;;;;;;5.57;2.40;;;11.90;1.00;;;;;;5055790;28;20590;-87
2022/05/17 03:00:43;;;;;;;3.63;2.23;;;12.00;1.00;;;;;;5055357;28;20206;-88
2022/05/17 03:03:10;;;;;;;3.80;2.00;;;12.00;1.00;;;;;;5055383;28;20204;-88
2022/05/17 03:05:39;;;;;;;4.23;2.20;;;11.90;1.00;;;;;;5055452;28;20203;-85
2022/05/17 03:08:07;;;;;;;4.10;1.70;;;12.00;1.00;;;;;;5055231;28;20219;-90
2022/05/17 03:10:34;;;;;;;6.43;2.07;;;11.90;1.00;;;;;;5056674;28;20200;-89
2022/05/17 03:13:01;;;;;;;3.80;2.27;;;12.00;1.00;;;;;;5057742;28;20192;-88
2022/05/17 03:15:29;;;;;;;3.10;1.90;;;12.00;1.00;;;;;;5054066;28;20197;-87
2022/05/17 03:17:56;;;;;;;3.63;2.00;;;12.00;1.00;;;;;;5056112;28;20240;-89
2022/05/17 03:20:23;;;;;;;;;;;12.00;1.00;;;;;;5056881;28;19928;-86
2022/05/17 03:22:51;;;;;;;;;;;12.00;1.00;;;;;;5055644;28;19931;-84
2022/05/17 03:25:18;;;;;;;;;;;12.00;1.00;;;;;;5056480;28;19974;-86
2022/05/17 03:27:45;;;;;;;;;;;12.00;1.00;;;;;;5056865;28;20362;-84
2022/05/17 03:30:12;;;;;;;;;;;12.00;1.00;;;;;;5055293;28;19920;-83
2022/05/17 03:32:39;;;;;;;;;;;12.00;1.00;;;;;;5055088;28;20361;-83
2022/05/17 03:35:06;;;;;;;;;;;12.00;1.00;;;;;;5055078;28;19921;-83
2022/05/17 03:37:33;;;;;;;;;;;12.00;1.00;;;;;;5055433;28;19983;-83
2022/05/17 03:40:01;;;;;;;;;;;12.10;1.00;;;;;;5054444;28;19920;-84
2022/05/17 03:42:28;;;;;;;;;;;12.10;1.00;;;;;;5055644;28;19928;-85
2022/05/17 03:44:55;;;;;;;;;;;12.10;1.00;;;;;;5055312;28;19924;-85
2022/05/17 03:47:30;;;;;;;;;;;12.10;1.00;;;;;;5056582;28;20442;-84
2022/05/17 03:49:57;;;;;;;;;;;12.20;1.00;;;;;;5060835;28;19943;-89
2022/05/17 03:52:25;;;;;;;;;;;12.20;1.00;;;;;;5057556;28;19921;-88
2022/05/17 03:54:54;;;;;;;;;;;12.20;1.00;;;;;;5059667;28;19924;-82
2022/05/17 03:57:25;;;;;;;;;;;12.30;1.00;;;;;;5057981;28;19925;-85
2022/05/17 03:59:52;;;;;;;;;;;12.40;1.00;;;;;;5056081;28;19932;-85
2022/05/17 04:02:19;;;;;;;;;;;12.50;1.00;;;;;;5056693;28;20557;-88
2022/05/17 04:04:52;;;;;;;;;;;12.50;1.00;;;;;;5057385;28;19924;-86
2022/05/17 04:07:19;;;;;;;;;;;12.50;1.00;;;;;;5058590;28;20250;-88
2022/05/17 04:09:46;;;;;;;;;;;12.50;1.00;;;;;;5059134;28;19982;-89
2022/05/17 04:12:12;;;;;;;;;;;12.50;1.00;;;;;;5058308;28;19920;-85
2022/05/17 04:14:41;;;;;;;;;;;12.50;1.00;;;;;;5060007;28;19921;-85
2022/05/17 04:17:09;;;;;;;;;;;12.60;1.00;;;;;;5058874;28;19921;-84
2022/05/17 04:19:36;;;;;;;;;;;12.50;1.00;;;;;;5058342;28;20019;-89
2022/05/17 04:22:06;;;;;;;;;;;12.50;1.00;;;;;;5057069;28;19974;-84
2022/05/17 04:24:34;;;;;;;;;;;12.50;1.00;;;;;;5061148;28;20019;-84
2022/05/17 04:27:00;;;;;;;;;;;12.60;1.00;;;;;;5059568;28;19921;-85
2022/05/17 04:29:42;;;;;;;;;;;12.60;1.00;;;;;;5060676;28;19926;-90
2022/05/17 04:32:10;;;;;;;;;;;12.70;1.00;;;;;;5058233;28;19926;-91
2022/05/17 04:34:46;;;;;;;;;;;12.70;1.00;;;;;;5056511;28;19927;-86
2022/05/17 04:37:28;;;;;;;;;;;12.80;1.00;;;;;;5059248;28;19924;-86
2022/05/17 04:39:55;;;;;;;;;;;12.90;1.00;;;;;;5058028;28;19944;-89
2022/05/17 04:42:22;;;;;;;;;;;12.90;1.00;;;;;;5061059;28;19932;-92
2022/05/17 04:44:49;;;;;;;;;;;12.90;1.00;;;;;;5058270;28;19974;-90
2022/05/17 04:47:37;;;;;;;;;;;12.90;1.00;;;;;;5059533;28;20015;-85
2022/05/17 04:50:04;;;;;;;;;;;12.90;1.00;;;;;;5055974;28;19921;-86
2022/05/17 04:52:30;;;;;;;;;;;12.90;1.00;;;;;;5057115;28;20035;-85
2022/05/17 04:54:57;;;;;;;;;;;13.00;1.00;;;;;;5058914;28;19975;-88
2022/05/17 04:57:24;;;;;;;;;;;13.00;1.00;;;;;;5058514;28;19921;-83
2022/05/17 04:59:51;;;;;;;;;;;13.00;1.00;;;;;;5059161;28;20297;-83
2022/05/17 05:02:18;;;;;;;;;;;13.00;1.00;;;;;;5058984;28;19920;-84
2022/05/17 05:04:46;;;;;;;;;;;13.00;1.00;;;;;;5056933;28;19921;-87
2022/05/17 05:07:15;;;;;;;;;;;13.00;1.00;;;;;;5055467;28;19924;-82
2022/05/17 05:09:42;;;;;;;;;;;13.00;1.00;;;;;;5057364;28;19975;-82
2022/05/17 05:12:09;;;;;;;;;;;13.10;1.00;;;;;;5060279;28;20018;-83
2022/05/17 05:14:36;;;;;;;;;;;13.20;1.00;;;;;;5058171;28;19925;-82
2022/05/17 05:17:02;;;;;;;;;;;13.30;1.00;;;;;;5058893;28;19994;-84
2022/05/17 05:19:42;;;;;;;3.90;2.00;;;13.40;1.00;;;;;;5054817;28;20108;-83
2022/05/17 05:22:11;;;;;;;4.83;2.23;;;13.50;1.00;;;;;;5061142;28;20699;-83
2022/05/17 05:24:38;;;;;;;2.57;1.73;;;13.60;1.00;;;;;;5060763;28;20199;-84
2022/05/17 05:27:13;;;;;;;3.37;2.00;;;13.80;1.00;;;;;;5054806;28;20201;-82
2022/05/17 05:29:40;;;;;;;2.53;1.80;;;14.00;1.00;;;;;;5059405;28;20544;-82
2022/05/17 05:32:10;;;;;;;3.80;1.70;;;14.30;1.00;;;;;;5061708;28;20738;-85
2022/05/17 05:34:37;;;;;;;2.53;1.90;;;14.50;1.00;;;;;;5060339;28;20178;-88
2022/05/17 05:37:05;;;;;;;2.97;2.03;;;14.90;1.00;;;;;;5057472;28;20205;-85
2022/05/17 05:39:40;;;;;;;2.97;1.90;;;15.30;1.00;;;;;;5058970;28;20195;-86
2022/05/17 05:42:07;;;;;;;3.60;2.13;;;15.50;1.00;;;;;;5058132;28;20605;-85
2022/05/17 05:44:34;;;;;;;4.20;2.00;;;15.60;1.00;;;;;;5059029;28;20253;-89
2022/05/17 05:47:01;;;;;;;4.90;2.43;;;15.40;1.00;;;;;;5060200;28;20201;-87
2022/05/17 05:49:29;;;;;;;3.50;2.10;;;15.40;1.00;;;;;;5055695;28;20249;-86
2022/05/17 05:51:56;;;;;;;4.83;2.23;;;15.30;1.00;;;;;;5059118;28;20195;-87
2022/05/17 05:54:23;;;;;;;4.20;1.93;;;15.20;1.00;;;;;;5053738;28;20596;-83
2022/05/17 05:56:59;;;;;;;2.60;1.53;;;15.10;1.00;;;;;;5054309;28;20190;-86
2022/05/17 05:59:29;;;;;;;3.73;2.13;;;14.90;1.00;;;;;;5058433;28;20178;-89
2022/05/17 06:01:57;;;;;;;3.50;2.20;;;14.80;1.00;;;;;;5057108;28;20202;-83
2022/05/17 06:04:27;;;;;;;4.53;2.00;;;14.60;1.00;;;;;;5058245;28;20200;-87
2022/05/17 06:06:57;;;;;;;4.30;2.37;;;14.50;1.00;;;;;;5054272;28;20202;-89
2022/05/17 06:09:26;;;;;;;3.53;2.20;;;14.50;1.00;;;;;;5056645;28;20231;-84
2022/05/17 06:11:59;;;;;;;3.60;2.57;;;14.40;1.00;;;;;;5057318;28;20253;-83
2022/05/17 06:14:27;;;;;;;5.30;2.50;;;14.40;1.00;;;;;;5056004;28;20207;-89
2022/05/17 06:16:54;;;;;;;3.67;2.43;;;14.40;1.00;;;;;;5056207;28;20207;-83
2022/05/17 06:19:25;;;;;;;3.87;2.20;;;14.30;1.00;;;;;;5058221;28;20228;-85
2022/05/17 06:22:00;;;;;;;8.33;2.43;;;14.30;1.00;;;;;;5056494;28;20189;-86
2022/05/17 06:24:28;;;;;;;10.23;2.30;;;14.40;1.00;;;;;;5063280;28;20180;-86
2022/05/17 06:26:57;;;;;;;4.10;2.27;;;14.40;1.00;;;;;;5062053;28;20184;-86
2022/05/17 06:29:23;;;;;;;5.63;2.30;;;14.40;1.00;;;;;;5060520;28;20204;-85
2022/05/17 06:32:02;;;;;;;4.43;2.50;;;14.40;1.00;;;;;;5064442;28;20201;-85
2022/05/17 06:34:30;;;;;;;4.73;2.30;;;14.50;1.00;;;;;;5059989;28;20188;-87
2022/05/17 06:36:57;;;;;;;6.03;2.83;;;14.50;1.00;;;;;;5059104;28;20225;-86
2022/05/17 06:39:24;;;;;;;4.07;2.40;;;14.50;1.00;;;;;;5057134;28;20244;-85
2022/05/17 06:41:56;;;;;;;4.03;2.20;;;14.60;1.00;;;;;;5063367;28;20210;-88
2022/05/17 06:44:25;;;;;;;5.80;2.73;;;14.70;1.00;;;;;;5061861;28;20276;-86
2022/05/17 06:46:54;;;;;;;7.43;2.40;;;14.80;1.00;;;;;;5060057;28;20189;-86
2022/05/17 06:49:27;;;;;;;5.27;2.20;;;14.80;1.00;;;;;;5058532;28;20208;-84
2022/05/17 06:51:57;;;;;;;8.67;2.67;;;14.90;1.00;;;;;;5061472;28;20558;-84
2022/05/17 06:54:24;;;;;;;4.67;2.30;;;14.90;1.00;;;;;;5059564;28;20205;-88
2022/05/17 06:56:51;;;;;;;3.50;2.50;;;15.00;1.00;;;;;;5062373;28;20182;-83
2022/05/17 06:59:22;;;;;;;4.23;2.50;;;15.00;1.00;;;;;;5058705;28;20633;-86
2022/05/17 07:01:49;;;;;;;5.23;2.67;;;15.10;1.00;;;;;;5063448;28;20218;-86
2022/05/17 07:04:16;;;;;;;8.00;2.60;;;15.30;1.00;;;;;;5060749;28;20236;-86
2022/05/17 07:06:44;;;;;;;6.17;2.97;;;15.30;1.00;;;;;;5058180;28;20249;-86
2022/05/17 07:09:12;;;;;;;3.67;2.57;;;15.30;1.00;;;;;;5057758;28;20315;-86
2022/05/17 07:14:30;;;;;;;3.37;2.40;;;15.40;1.00;;;;;;5059387;28;20210;-85
2022/05/17 07:16:57;;;;;;;6.50;2.80;;;15.50;1.00;;;;;;5059307;28;20231;-87
2022/05/17 07:19:24;;;;;;;5.93;2.90;;;15.60;1.00;;;;;;5058751;28;20338;-89
2022/05/17 07:22:00;;;;;;;5.03;2.70;;;15.70;1.00;;;;;;5062075;28;20206;-87
2022/05/17 07:24:28;;;;;;;8.07;2.73;;;15.80;1.00;;;;;;5063520;28;20253;-83
2022/05/17 07:26:58;;;;;;;8.47;2.90;;;15.90;1.00;;;;;;5062168;28;20194;-86
2022/05/17 07:29:25;;;;;;;4.37;2.53;;;15.90;1.00;;;;;;5062503;28;20255;-85
2022/05/17 07:31:54;;;;;;;5.57;2.50;;;15.90;1.00;;;;;;5059195;28;20552;-85
2022/05/17 07:34:21;;;;;;;4.87;2.67;;;16.00;1.00;;;;;;5057170;28;20192;-88
2022/05/17 07:36:49;;;;;;;4.97;2.53;;;16.00;1.00;;;;;;5059579;28;20266;-88
2022/05/17 07:39:16;;;;;;;3.80;2.30;;;16.00;1.00;;;;;;5061789;28;20207;-84
2022/05/17 07:41:43;;;;;;;4.03;2.60;;;16.10;1.00;;;;;;5061112;28;20187;-86
2022/05/17 07:44:17;;;;;;;4.63;2.30;;;16.00;1.00;;;;;;5061728;28;20613;-84
2022/05/17 07:46:44;;;;;;;6.33;2.70;;;16.10;1.00;;;;;;5061626;28;20566;-83
2022/05/17 07:49:13;;;;;;;5.63;2.40;;;16.00;1.00;;;;;;5058923;28;20200;-87
2022/05/17 07:51:40;;;;;;;4.17;2.33;;;15.90;1.00;;;;;;5063878;28;20194;-84
2022/05/17 07:54:08;;;;;;;4.87;2.60;;;16.00;1.00;;;;;;5057709;28;20322;-84
2022/05/17 07:56:45;;;;;;;3.37;2.20;;;16.00;1.00;;;;;;5062872;28;20713;-85
2022/05/17 07:59:12;;;;;;;4.27;2.40;;;16.00;1.00;;;;;;5060379;28;20286;-85
2022/05/17 08:01:44;;;;;;;3.53;2.40;;;16.10;1.00;;;;;;5061466;28;20208;-86
2022/05/17 08:04:11;;;;;;;6.97;2.70;;;16.10;1.00;;;;;;5059448;28;20239;-85
2022/05/17 08:06:42;;;;;;;6.80;2.90;;;16.10;1.00;;;;;;5056974;28;20178;-84
2022/05/17 08:09:15;;;;;;;6.30;2.67;;;16.20;1.00;;;;;;5059079;28;20195;-86
2022/05/17 08:11:48;;;;;;;4.83;2.37;;;16.30;1.00;;;;;;5064274;28;20180;-90
2022/05/17 08:14:15;;;;;;;3.63;2.60;;;16.30;1.00;;;;;;5055424;28;20639;-85
2022/05/17 08:16:43;;;;;;;4.50;2.40;;;16.50;1.00;;;;;;5055866;28;20193;-84
2022/05/17 08:19:10;;;;;;;2.70;2.15;;;16.60;1.00;;;;;;5057295;28;20221;-84
2022/05/17 08:21:38;;;;;;;3.92;2.28;;;16.80;1.00;;;;;;5059890;28;20244;-87
2022/05/17 08:24:07;;;;;;;4.80;2.30;;;16.90;1.00;;;;;;5060831;28;20534;-85
2022/05/17 08:29:21;;;;;;;4.22;2.40;;;16.90;1.00;;;;;;5064211;28;20211;-85
2022/05/17 08:34:29;;;;;;;6.85;2.53;;;17.00;1.00;;;;;;5057632;28;20178;-85
2022/05/17 08:36:56;;;;;;;10.80;5.13;;;17.00;1.00;;;;;;5055551;28;20228;-84
2022/05/17 08:39:40;;;;;;;5.88;2.22;;;17.10;1.00;;;;;;5061130;28;20739;-85
2022/05/17 08:42:18;;;;;;;5.47;2.20;;;17.20;1.00;;;;;;5060073;28;20663;-84
2022/05/17 08:44:49;;;;;;;3.90;2.25;;;17.20;1.00;;;;;;5053465;28;20606;-83
2022/05/17 08:47:22;;;;;;;4.00;2.30;;;17.30;1.00;;;;;;5054661;28;20236;-83
2022/05/17 08:49:56;;;;;;;3.33;2.00;;;17.50;1.00;;;;;;5055855;28;20184;-85
2022/05/17 08:52:25;;;;;;;3.38;2.10;;;17.60;1.00;;;;;;5053432;28;20188;-82
2022/05/17 08:54:57;;;;;;;3.95;2.22;;;17.70;1.00;;;;;;5053511;28;20197;-83
2022/05/17 08:57:31;;;;;;;5.18;2.28;;;17.90;1.00;;;;;;5056482;28;20177;-89
2022/05/17 09:00:05;;;;;;;5.90;2.13;;;18.10;1.00;;;;;;5053248;28;20228;-83
2022/05/17 09:02:40;;;;;;;3.47;2.33;;;18.30;1.00;;;;;;5057960;28;20189;-85
2022/05/17 09:05:16;;;;;;;4.03;2.00;;;18.40;1.00;;;;;;5055142;28;20204;-83
2022/05/17 09:07:54;;;;;;;3.35;1.90;;;18.60;1.00;;;;;;5055887;28;20227;-84
2022/05/17 09:10:33;;;;;;;2.83;2.15;;;18.70;1.00;;;;;;5058039;28;20184;-87
2022/05/17 09:13:07;;;;;;;4.65;2.30;;;18.70;1.00;;;;;;5053282;28;20189;-83
2022/05/17 09:15:43;;;;;;;3.13;1.70;;;18.90;1.00;;;;;;5067309;28;20165;-88
2022/05/17 09:18:14;;;;;;;5.18;1.75;;;19.30;1.00;;;;;;5062848;28;20199;-85
2022/05/17 09:20:42;;;;;;;3.75;2.08;;;19.60;1.00;;;;;;5054072;28;20545;-86
2022/05/17 09:23:09;;;;;;;6.20;2.22;;;19.90;1.00;;;;;;5054695;28;20190;-84
2022/05/17 09:25:50;;;;;;;3.90;1.85;;;20.10;1.00;;;;;;5053971;28;20193;-84
2022/05/17 09:28:23;;;;;;;4.75;1.90;;;20.40;1.00;;;;;;5056679;28;20173;-86
2022/05/17 09:31:08;;;;;;;3.95;2.00;;;20.80;1.00;;;;;;5056212;28;20254;-84
2022/05/17 09:33:38;;;;;;;3.50;2.15;;;21.20;1.00;;;;;;5058200;28;20597;-85
2022/05/17 09:36:05;;;;;;;7.30;2.05;;;21.40;1.00;;;;;;5053363;28;20303;-86
2022/05/17 09:38:36;;;;;;;3.03;1.95;;;21.60;1.00;;;;;;5052148;28;20677;-84
2022/05/17 09:41:08;;;;;;;3.60;1.77;;;21.70;1.00;;;;;;5053926;28;20185;-86
2022/05/17 09:43:45;;;;;;;3.92;1.80;;;22.00;1.00;;;;;;5054821;28;20195;-83
2022/05/17 09:46:14;;;;;;;3.90;2.03;;;22.30;1.00;;;;;;5052581;28;20185;-85
2022/05/17 09:54:31;;;;;;;3.20;2.20;;;22.90;1.00;;;;;;5013468;28;20236;-85
2022/05/17 09:57:17;;;;;;;9.10;2.00;;;22.90;1.00;;;;;;5044111;28;20216;-87
2022/05/17 09:59:45;;;;;;;3.28;1.77;;;23.00;1.00;;;;;;5056595;28;20266;-83
2022/05/17 10:02:38;;;;;;;4.80;2.22;;;23.10;1.00;;;;;;5053801;28;20692;-85
2022/05/17 10:05:20;;;;;;;2.72;2.03;;;23.40;1.00;;;;;;5054141;28;20196;-84
2022/05/17 10:07:55;;;;;;;;;;;23.50;1.00;;;;;;5053024;28;20185;-84
2022/05/17 10:10:32;;;;;;;;;;;23.60;1.00;;;;;;5038217;28;20004;-85
2022/05/17 10:13:25;;;;;;;2.65;1.90;;;23.80;1.00;;;;;;5034871;28;20056;-85
2022/05/17 10:15:57;;;;;;;4.65;1.60;;;24.10;1.00;;;;;;5032542;28;20181;-86
2022/05/17 10:18:34;;;;;;;3.88;1.80;;;23.70;1.00;;;;;;5036923;28;20182;-85
2022/05/17 10:21:10;;;;;;;3.83;1.65;;;23.30;1.00;;;;;;5056000;28;20208;-89
2022/05/17 10:23:41;;;;;;;2.97;1.75;;;23.00;1.00;;;;;;5055519;28;20235;-84
2022/05/17 10:26:16;;;;;;;5.13;2.00;;;22.80;1.00;;;;;;5053510;28;20625;-86
2022/05/17 10:28:50;;;;;;;2.95;2.00;;;22.70;1.00;;;;;;5033220;28;20213;-88
2022/05/17 10:31:24;;;;;;;5.63;2.10;;;22.60;1.00;;;;;;5039794;28;20186;-84
2022/05/17 10:34:04;;;;;;;6.25;1.98;;;22.60;1.00;;;;;;5034042;28;20707;-86
2022/05/17 10:36:43;;;;;;;3.20;1.88;;;22.80;1.00;;;;;;5052372;28;20224;-83
2022/05/17 10:39:22;;;;;;;6.93;1.80;;;22.70;1.00;;;;;;5055156;28;20589;-85
2022/05/17 10:41:50;;;;;;;5.10;1.77;;;22.80;1.00;;;;;;5056548;28;20201;-82
2022/05/17 10:44:21;;;;;;;3.00;1.80;;;23.00;1.00;;;;;;5053710;28;20193;-86
2022/05/17 10:46:54;;;;;;;4.00;2.03;;;23.00;1.00;;;;;;5052528;28;20188;-83
2022/05/17 10:49:49;;;;;;;3.42;1.58;;;22.90;1.00;;;;;;5054850;28;20181;-86
2022/05/17 10:52:36;;;;;;;4.30;2.10;;;22.70;1.00;;;;;;5055184;28;20201;-85
2022/05/17 10:55:17;;;;;;;2.30;1.45;;;22.30;1.00;;;;;;5071020;28;20284;-86
2022/05/17 10:57:53;;;;;;;4.60;1.40;;;22.20;1.00;;;;;;5052198;28;20190;-87
2022/05/17 11:00:26;;;;;;;3.88;1.80;;;22.30;1.00;;;;;;5050255;28;20208;-88
2022/05/17 11:03:06;;;;;;;4.82;1.80;;;22.40;1.00;;;;;;5053679;28;20209;-85
2022/05/17 11:05:45;;;;;;;2.15;1.42;;;22.50;1.00;;;;;;5057806;28;20219;-86
2022/05/17 11:08:21;;;;;;;5.63;1.67;;;22.50;1.00;;;;;;5071144;28;20197;-86
2022/05/17 11:10:58;;;;;;;3.40;1.60;;;22.60;1.00;;;;;;5075780;28;20191;-84
2022/05/17 11:13:38;;;;;;;1.48;1.27;;;22.70;1.00;;;;;;5074077;28;20197;-86
2022/05/17 11:16:23;;;;;;;5.05;1.30;;;22.80;1.00;;;;;;5077441;28;20197;-87
2022/05/17 11:18:56;;;;;;;3.08;1.48;;;22.90;1.00;;;;;;5075967;28;20203;-84
2022/05/17 11:21:32;;;;;;;4.53;1.67;;;23.00;1.00;;;;;;5076210;28;20177;-87
2022/05/17 11:24:14;;;;;;;3.13;1.40;;;23.30;1.00;;;;;;5077257;28;20185;-88
2022/05/17 11:26:55;;;;;;;2.05;1.33;;;23.40;1.00;;;;;;5073226;28;20192;-86
2022/05/17 11:30:12;;;;;;;2.15;1.35;;;23.50;1.00;;;;;;5078257;28;20189;-87
2022/05/17 11:33:02;;;;;;;4.00;1.42;;;23.60;1.00;;;;;;5073516;28;20173;-85
2022/05/17 11:35:49;;;;;;;3.05;1.25;;;23.80;1.00;;;;;;5075632;28;20292;-89
2022/05/17 11:38:21;;;;;;;2.97;1.63;;;23.90;1.00;;;;;;5069860;28;20207;-85
2022/05/17 11:41:17;;;;;;;2.65;1.30;;;23.90;1.00;;;;;;5073695;28;20215;-87
2022/05/17 11:46:56;;;;;;;3.05;1.23;;;23.90;1.00;;;;;;5075582;28;20260;-87
2022/05/17 11:49:41;;;;;;;3.35;1.50;;;24.10;1.00;;;;;;5074870;28;20529;-85
2022/05/17 11:52:28;;;;;;;5.15;1.45;;;24.10;1.00;;;;;;5075275;28;20204;-86
2022/05/17 11:54:57;;;;;;;1.58;1.15;;;24.20;1.00;;;;;;5071727;28;20204;-85
2022/05/17 11:58:03;;;;;;;2.35;1.20;;;24.20;1.00;;;;;;5075622;28;20197;-87
2022/05/17 12:00:47;;;;;;;5.38;1.35;;;24.20;1.00;;;;;;5071776;28;20219;-87
2022/05/17 12:03:49;;;;;;;2.75;1.17;;;24.10;1.00;;;;;;5070961;28;20197;-86
2022/05/17 12:07:19;;;;;;;3.72;1.23;;;24.20;1.00;;;;;;5072195;28;20196;-87
2022/05/17 12:09:50;;;;;;;2.95;1.40;;;24.50;1.00;;;;;;5073957;28;20200;-88
2022/05/17 12:12:56;;;;;;;4.45;1.30;;;24.40;1.00;;;;;;5073370;28;20205;-86
2022/05/17 12:15:45;;;;;;;4.32;1.52;;;24.10;1.00;;;;;;5071071;28;20191;-84
2022/05/17 12:18:39;;;;;;;4.22;1.30;;;24.10;1.00;;;;;;5071546;28;20204;-85
2022/05/17 12:21:22;;;;;;;4.55;1.35;;;24.20;1.00;;;;;;5073195;28;20227;-86
2022/05/17 12:23:57;;;;;;;1.90;1.00;;;24.10;1.00;;;;;;5071501;28;20203;-89
2022/05/17 12:26:36;;;;;;;3.42;1.30;;;24.20;1.00;;;;;;5071310;28;20203;-87
2022/05/17 12:32:05;;;;;;;2.97;1.30;;;24.40;1.00;;;;;;5071577;28;20223;-87
2022/05/17 12:34:33;;;;;;;2.85;1.10;;;24.40;1.00;;;;;;5070217;28;20197;-88
2022/05/17 12:37:13;;;;;;;3.88;1.20;;;24.20;1.00;;;;;;5070178;28;20224;-88
2022/05/17 12:45:17;;;;;;;1.63;1.10;;;23.90;1.00;;;;;;5070539;28;20269;-87
2022/05/17 12:47:56;;;;;;;3.25;1.10;;;23.70;1.00;;;;;;5070547;28;20248;-85
2022/05/17 12:50:40;;;;;;;3.13;1.20;;;23.70;1.00;;;;;;5056144;28;20220;-87
2022/05/17 12:53:14;;;;;;;3.17;1.42;;;23.60;1.00;;;;;;5042488;28;20598;-86
2022/05/17 12:56:01;;;;;;;3.22;1.20;;;23.70;1.00;;;;;;5033430;28;20189;-83
2022/05/17 12:58:28;;;;;;;3.50;1.33;;;23.80;1.00;;;;;;5035109;28;20186;-87
2022/05/17 13:00:57;;;;;;;4.18;1.38;;;23.80;1.00;;;;;;5037319;28;20235;-84
2022/05/17 13:03:27;;;;;;;1.85;1.20;;;23.80;1.00;;;;;;5055188;28;20211;-87
2022/05/17 13:05:58;;;;;;;2.95;1.40;;;23.90;1.00;;;;;;5053741;28;20247;-85
2022/05/17 13:08:27;;;;;;;3.38;1.27;;;23.80;1.00;;;;;;5053687;28;20268;-85
2022/05/17 13:11:03;;;;;;;5.57;1.73;;;23.90;1.00;;;;;;5053789;28;20192;-87
2022/05/17 13:13:32;;;;;;;5.85;2.75;;;24.10;1.00;;;;;;5055633;28;20258;-85
2022/05/17 13:16:03;;;;;;;5.65;3.63;;;24.30;1.00;;;;;;5052760;28;20284;-82
2022/05/17 13:18:38;;;;;;;3.63;1.40;;;24.50;1.00;;;;;;5058689;28;20185;-85
2022/05/17 13:21:09;;;;;;;2.42;1.42;;;24.70;1.00;;;;;;5042348;28;20221;-83
2022/05/17 13:23:37;;;;;;;8.27;5.95;;;24.90;1.00;;;;;;5044291;28;20196;-84
2022/05/17 13:26:07;;;;;;;6.88;2.40;;;25.10;1.00;;;;;;5055215;28;20192;-85
2022/05/17 13:28:36;;;;;;;2.50;1.60;;;25.40;1.00;;;;;;5053870;28;20185;-84
2022/05/17 13:31:15;;;;;;;4.43;1.48;;;25.60;1.00;;;;;;5051971;28;20215;-85
2022/05/17 13:33:55;;;;;;;5.78;2.63;;;25.60;1.00;;;;;;5055883;28;20595;-85
2022/05/17 13:36:44;;;;;;;2.40;1.30;;;25.80;1.00;;;;;;5055331;28;20566;-86
2022/05/17 13:39:27;;;;;;;2.55;1.42;;;26.00;1.00;;;;;;5053828;28;20276;-84
2022/05/17 13:41:57;;;;;;;3.10;1.33;;;26.10;1.00;;;;;;5050652;28;20239;-83
2022/05/17 13:44:31;;;;;;;2.83;1.48;;;25.90;1.00;;;;;;5053496;28;20196;-88
2022/05/17 13:47:00;;;;;;;3.53;1.33;;;25.70;1.00;;;;;;5054151;28;20204;-84
2022/05/17 13:49:33;;;;;;;4.22;1.42;;;25.90;1.00;;;;;;5052024;28;20185;-83
2022/05/17 13:52:05;;;;;;;2.65;1.15;;;25.70;1.00;;;;;;5051521;28;20262;-84
2022/05/17 13:54:39;;;;;;;3.90;1.20;;;25.60;1.00;;;;;;5052280;28;20239;-84
2022/05/17 13:57:14;;;;;;;1.52;1.35;;;25.40;1.00;;;;;;5054401;28;20604;-85
2022/05/17 13:59:43;;;;;;;4.57;1.30;;;25.20;1.00;;;;;;5053102;28;20247;-84
2022/05/17 14:02:16;;;;;;;1.67;1.35;;;25.20;1.00;;;;;;5053677;28;20197;-85
2022/05/17 14:04:45;;;;;;;4.03;1.33;;;25.20;1.00;;;;;;5058578;28;20185;-86
2022/05/17 14:07:24;;;;;;;1.25;1.08;;;25.20;1.00;;;;;;5053030;28;20205;-85